sensor_id;sensor_type;location;lat;lon;timestamp;pressure;altitude;pressure_sealevel;temperature;humidity
60918;BME280;46792;38.854;-9.384;2024-03-08T10:57:36;98595.13;;;13.52;100.00
60918;BME280;46792;38.854;-9.384;2024-03-08T10:59:38;98592.09;;;13.53;100.00
60918;BME280;46792;38.854;-9.384;2024-03-08T11:01:40;98590.44;;;13.66;100.00
60918;BME280;46792;38.854;-9.384;2024-03-08T11:05:41;98589.13;;;13.87;100.00
60918;BME280;46792;38.854;-9.384;2024-03-08T11:07:42;98578.78;;;13.89;100.00
60918;BME280;46792;38.854;-9.384;2024-03-08T11:09:43;98573.53;;;13.92;100.00
60918;BME280;46792;38.854;-9.384;2024-03-08T11:11:47;98565.75;;;13.99;100.00
60918;BME280;46792;38.854;-9.384;2024-03-08T11:13:47;98565.59;;;14.05;100.00
60918;BME280;46792;38.854;-9.384;2024-03-08T11:15:48;98563.91;;;14.18;100.00
60918;BME280;46792;38.854;-9.384;2024-03-08T11:17:49;98565.44;;;14.33;100.00
60918;BME280;46792;38.854;-9.384;2024-03-08T11:19:50;98566.25;;;14.42;100.00
60918;BME280;46792;38.854;-9.384;2024-03-08T11:22:02;98565.28;;;14.38;99.79
60918;BME280;46792;38.854;-9.384;2024-03-08T11:24:07;98557.78;;;14.35;99.96
60918;BME280;46792;38.854;-9.384;2024-03-08T11:26:23;98557.28;;;14.33;99.86
60918;BME280;46792;38.854;-9.384;2024-03-08T11:28:25;98554.63;;;14.41;100.00
60918;BME280;46792;38.854;-9.384;2024-03-08T11:30:27;98546.34;;;14.55;100.00
60918;BME280;46792;38.854;-9.384;2024-03-08T11:32:29;98552.34;;;14.75;100.00
60918;BME280;46792;38.854;-9.384;2024-03-08T11:34:31;98552.09;;;14.54;99.68
60918;BME280;46792;38.854;-9.384;2024-03-08T11:36:34;98564.97;;;14.39;100.00
60918;BME280;46792;38.854;-9.384;2024-03-08T11:38:40;98571.06;;;14.45;100.00
60918;BME280;46792;38.854;-9.384;2024-03-08T11:40:42;98563.91;;;14.49;100.00
60918;BME280;46792;38.854;-9.384;2024-03-08T11:42:49;98547.63;;;14.49;100.00
60918;BME280;46792;38.854;-9.384;2024-03-08T11:44:52;98549.50;;;14.49;100.00
60918;BME280;46792;38.854;-9.384;2024-03-08T11:46:53;98550.47;;;14.44;100.00
60918;BME280;46792;38.854;-9.384;2024-03-08T11:48:54;98550.28;;;14.40;100.00
60918;BME280;46792;38.854;-9.384;2024-03-08T11:51:00;98541.81;;;14.42;100.00
60918;BME280;46792;38.854;-9.384;2024-03-08T11:53:05;98536.88;;;14.44;100.00
60918;BME280;46792;38.854;-9.384;2024-03-08T11:55:06;98531.09;;;14.37;100.00
60918;BME280;46792;38.854;-9.384;2024-03-08T11:57:07;98534.59;;;14.28;100.00
60918;BME280;46792;38.854;-9.384;2024-03-08T11:59:13;98527.50;;;14.10;100.00
60918;BME280;46792;38.854;-9.384;2024-03-08T12:01:14;98530.31;;;14.05;100.00
60918;BME280;46792;38.854;-9.384;2024-03-08T12:03:14;98527.28;;;13.97;100.00
60918;BME280;46792;38.854;-9.384;2024-03-08T12:05:15;98515.59;;;13.97;100.00
60918;BME280;46792;38.854;-9.384;2024-03-08T12:07:16;98513.97;;;13.87;100.00
60918;BME280;46792;38.854;-9.384;2024-03-08T12:09:19;98508.06;;;13.85;100.00
60918;BME280;46792;38.854;-9.384;2024-03-08T12:11:23;98516.22;;;13.85;100.00
60918;BME280;46792;38.854;-9.384;2024-03-08T12:13:24;98516.38;;;13.89;100.00
60918;BME280;46792;38.854;-9.384;2024-03-08T12:15:25;98501.69;;;13.90;100.00
60918;BME280;46792;38.854;-9.384;2024-03-08T12:17:26;98502.31;;;13.87;100.00
60918;BME280;46792;38.854;-9.384;2024-03-08T12:19:28;98498.44;;;13.79;100.00
60918;BME280;46792;38.854;-9.384;2024-03-08T12:21:31;98491.75;;;13.76;100.00
60918;BME280;46792;38.854;-9.384;2024-03-08T12:23:36;98482.28;;;13.74;100.00
60918;BME280;46792;38.854;-9.384;2024-03-08T12:25:37;98481.69;;;13.77;100.00
60918;BME280;46792;38.854;-9.384;2024-03-08T12:27:40;98483.91;;;13.75;100.00
60918;BME280;46792;38.854;-9.384;2024-03-08T12:29:41;98478.97;;;13.77;100.00
60918;BME280;46792;38.854;-9.384;2024-03-08T12:31:42;98466.03;;;13.74;100.00
60918;BME280;46792;38.854;-9.384;2024-03-08T12:33:50;98467.47;;;13.71;100.00
60918;BME280;46792;38.854;-9.384;2024-03-08T12:35:55;98468.28;;;13.72;100.00
60918;BME280;46792;38.854;-9.384;2024-03-08T12:37:57;98463.81;;;13.76;100.00
60918;BME280;46792;38.854;-9.384;2024-03-08T12:39:58;98466.72;;;13.79;100.00
60918;BME280;46792;38.854;-9.384;2024-03-08T12:41:59;98465.56;;;13.80;100.00
60918;BME280;46792;38.854;-9.384;2024-03-08T12:44:02;98455.53;;;13.81;100.00
60918;BME280;46792;38.854;-9.384;2024-03-08T12:46:04;98444.19;;;13.79;100.00
60918;BME280;46792;38.854;-9.384;2024-03-08T12:48:12;98435.28;;;13.78;100.00
60918;BME280;46792;38.854;-9.384;2024-03-08T12:50:14;98429.84;;;13.78;100.00
60918;BME280;46792;38.854;-9.384;2024-03-08T12:52:17;98424.72;;;13.77;100.00
60918;BME280;46792;38.854;-9.384;2024-03-08T12:54:19;98415.81;;;13.76;100.00
60918;BME280;46792;38.854;-9.384;2024-03-08T12:56:30;98407.34;;;13.78;100.00
60918;BME280;46792;38.854;-9.384;2024-03-08T12:58:31;98409.25;;;13.77;100.00
60918;BME280;46792;38.854;-9.384;2024-03-08T13:00:32;98397.75;;;13.72;100.00
60918;BME280;46792;38.854;-9.384;2024-03-08T13:02:32;98393.69;;;13.60;100.00
60918;BME280;46792;38.854;-9.384;2024-03-08T13:04:33;98399.28;;;13.55;100.00
60918;BME280;46792;38.854;-9.384;2024-03-08T13:06:34;98388.72;;;13.53;100.00
60918;BME280;46792;38.854;-9.384;2024-03-08T13:08:36;98379.97;;;13.57;100.00
60918;BME280;46792;38.854;-9.384;2024-03-08T13:10:40;98376.16;;;13.58;100.00
60918;BME280;46792;38.854;-9.384;2024-03-08T13:12:46;98364.03;;;13.64;100.00
60918;BME280;46792;38.854;-9.384;2024-03-08T13:14:47;98365.19;;;13.63;100.00
60918;BME280;46792;38.854;-9.384;2024-03-08T13:16:48;98355.91;;;13.64;100.00
60918;BME280;46792;38.854;-9.384;2024-03-08T13:18:49;98339.75;;;13.50;100.00
60918;BME280;46792;38.854;-9.384;2024-03-08T13:20:49;98341.41;;;13.37;100.00
60918;BME280;46792;38.854;-9.384;2024-03-08T13:22:52;98340.88;;;13.26;100.00
60918;BME280;46792;38.854;-9.384;2024-03-08T13:24:53;98326.69;;;13.20;100.00
60918;BME280;46792;38.854;-9.384;2024-03-08T13:26:53;98325.41;;;13.18;100.00
60918;BME280;46792;38.854;-9.384;2024-03-08T13:28:55;98318.41;;;13.26;100.00
60918;BME280;46792;38.854;-9.384;2024-03-08T13:30:57;98318.09;;;13.27;100.00
60918;BME280;46792;38.854;-9.384;2024-03-08T13:33:02;98316.50;;;13.26;100.00
60918;BME280;46792;38.854;-9.384;2024-03-08T13:35:05;98299.31;;;13.31;100.00
60918;BME280;46792;38.854;-9.384;2024-03-08T13:37:13;98292.75;;;13.32;100.00
60918;BME280;46792;38.854;-9.384;2024-03-08T13:39:16;98288.00;;;13.29;100.00
60918;BME280;46792;38.854;-9.384;2024-03-08T13:41:16;98281.13;;;13.31;100.00
60918;BME280;46792;38.854;-9.384;2024-03-08T13:43:22;98265.50;;;13.28;100.00
60918;BME280;46792;38.854;-9.384;2024-03-08T13:45:23;98266.47;;;13.32;100.00
60918;BME280;46792;38.854;-9.384;2024-03-08T13:47:24;98263.91;;;13.27;100.00
60918;BME280;46792;38.854;-9.384;2024-03-08T13:49:25;98258.47;;;13.27;100.00
60918;BME280;46792;38.854;-9.384;2024-03-08T13:51:26;98263.41;;;13.25;100.00
60918;BME280;46792;38.854;-9.384;2024-03-08T13:53:27;98246.38;;;13.24;100.00
60918;BME280;46792;38.854;-9.384;2024-03-08T13:55:27;98248.75;;;13.26;100.00
60918;BME280;46792;38.854;-9.384;2024-03-08T13:57:28;98240.00;;;13.29;100.00
60918;BME280;46792;38.854;-9.384;2024-03-08T13:59:30;98237.16;;;13.34;100.00
60918;BME280;46792;38.854;-9.384;2024-03-08T14:01:33;98230.25;;;13.28;100.00
60918;BME280;46792;38.854;-9.384;2024-03-08T14:03:36;98228.50;;;13.23;100.00
60918;BME280;46792;38.854;-9.384;2024-03-08T14:05:40;98220.22;;;13.20;100.00
60918;BME280;46792;38.854;-9.384;2024-03-08T14:07:42;98222.59;;;13.21;100.00
60918;BME280;46792;38.854;-9.384;2024-03-08T14:09:42;98203.94;;;13.20;100.00
60918;BME280;46792;38.854;-9.384;2024-03-08T14:11:46;98205.34;;;13.17;100.00
60918;BME280;46792;38.854;-9.384;2024-03-08T14:13:47;98205.06;;;13.19;100.00
60918;BME280;46792;38.854;-9.384;2024-03-08T14:15:48;98202.97;;;13.16;100.00
60918;BME280;46792;38.854;-9.384;2024-03-08T14:17:55;98191.19;;;13.20;100.00
60918;BME280;46792;38.854;-9.384;2024-03-08T14:19:56;98184.16;;;13.19;100.00
60918;BME280;46792;38.854;-9.384;2024-03-08T14:21:57;98180.50;;;13.15;100.00
60918;BME280;46792;38.854;-9.384;2024-03-08T14:24:00;98181.91;;;13.13;100.00
60918;BME280;46792;38.854;-9.384;2024-03-08T14:26:02;98170.09;;;13.08;100.00
60918;BME280;46792;38.854;-9.384;2024-03-08T14:28:04;98169.31;;;13.08;100.00
60918;BME280;46792;38.854;-9.384;2024-03-08T14:30:07;98164.03;;;13.03;100.00
60918;BME280;46792;38.854;-9.384;2024-03-08T14:32:10;98158.00;;;13.06;100.00
60918;BME280;46792;38.854;-9.384;2024-03-08T14:34:13;98147.94;;;12.98;100.00
60918;BME280;46792;38.854;-9.384;2024-03-08T14:36:15;98135.19;;;12.98;100.00
60918;BME280;46792;38.854;-9.384;2024-03-08T14:38:20;98136.13;;;12.93;100.00
60918;BME280;46792;38.854;-9.384;2024-03-08T14:40:20;98124.19;;;12.95;100.00
60918;BME280;46792;38.854;-9.384;2024-03-08T14:42:22;98118.63;;;12.91;100.00
60918;BME280;46792;38.854;-9.384;2024-03-08T14:44:23;98114.31;;;12.90;100.00
60918;BME280;46792;38.854;-9.384;2024-03-08T14:46:26;98104.41;;;12.85;100.00
60918;BME280;46792;38.854;-9.384;2024-03-08T14:48:27;98102.66;;;12.89;100.00
60918;BME280;46792;38.854;-9.384;2024-03-08T14:50:27;98086.75;;;12.88;100.00
60918;BME280;46792;38.854;-9.384;2024-03-08T14:52:28;98084.81;;;12.88;100.00
60918;BME280;46792;38.854;-9.384;2024-03-08T14:54:29;98080.84;;;12.86;100.00
60918;BME280;46792;38.854;-9.384;2024-03-08T14:56:29;98079.41;;;12.88;100.00
60918;BME280;46792;38.854;-9.384;2024-03-08T14:58:31;98076.41;;;12.90;100.00
60918;BME280;46792;38.854;-9.384;2024-03-08T15:00:32;98070.31;;;12.93;100.00
60918;BME280;46792;38.854;-9.384;2024-03-08T15:02:39;98077.53;;;12.98;100.00
60918;BME280;46792;38.854;-9.384;2024-03-08T15:04:39;98057.28;;;12.95;100.00
60918;BME280;46792;38.854;-9.384;2024-03-08T15:06:41;98079.72;;;12.87;100.00
60918;BME280;46792;38.854;-9.384;2024-03-08T15:08:51;98082.28;;;12.83;100.00
60918;BME280;46792;38.854;-9.384;2024-03-08T15:10:52;98065.56;;;12.90;100.00
60918;BME280;46792;38.854;-9.384;2024-03-08T15:12:55;98062.19;;;12.93;100.00
60918;BME280;46792;38.854;-9.384;2024-03-08T15:14:58;98056.63;;;12.98;100.00
60918;BME280;46792;38.854;-9.384;2024-03-08T15:16:59;98054.56;;;13.04;100.00
60918;BME280;46792;38.854;-9.384;2024-03-08T15:19:01;98054.56;;;13.04;100.00
60918;BME280;46792;38.854;-9.384;2024-03-08T15:21:04;98050.44;;;13.06;100.00
60918;BME280;46792;38.854;-9.384;2024-03-08T15:23:08;98041.50;;;13.06;100.00
60918;BME280;46792;38.854;-9.384;2024-03-08T15:25:10;98044.38;;;13.09;100.00
60918;BME280;46792;38.854;-9.384;2024-03-08T15:27:17;98040.56;;;13.11;100.00
60918;BME280;46792;38.854;-9.384;2024-03-08T15:29:17;98033.53;;;13.09;100.00
60918;BME280;46792;38.854;-9.384;2024-03-08T15:31:26;98022.88;;;13.04;100.00
60918;BME280;46792;38.854;-9.384;2024-03-08T15:33:27;98032.75;;;13.00;100.00
60918;BME280;46792;38.854;-9.384;2024-03-08T15:35:29;98019.03;;;12.88;100.00
60918;BME280;46792;38.854;-9.384;2024-03-08T15:37:32;98014.25;;;12.85;100.00
60918;BME280;46792;38.854;-9.384;2024-03-08T15:39:34;98010.09;;;12.78;100.00
60918;BME280;46792;38.854;-9.384;2024-03-08T15:41:34;98008.50;;;12.77;100.00
60918;BME280;46792;38.854;-9.384;2024-03-08T15:43:36;98007.84;;;12.81;100.00
60918;BME280;46792;38.854;-9.384;2024-03-08T15:45:37;98001.34;;;12.82;100.00
60918;BME280;46792;38.854;-9.384;2024-03-08T15:47:37;97992.25;;;12.77;100.00
60918;BME280;46792;38.854;-9.384;2024-03-08T15:49:38;97998.00;;;12.76;100.00
60918;BME280;46792;38.854;-9.384;2024-03-08T15:51:39;98002.78;;;12.79;100.00
60918;BME280;46792;38.854;-9.384;2024-03-08T15:53:41;97992.44;;;12.81;100.00
60918;BME280;46792;38.854;-9.384;2024-03-08T15:55:42;97980.63;;;12.77;100.00
60918;BME280;46792;38.854;-9.384;2024-03-08T15:57:47;97980.47;;;12.73;100.00
60918;BME280;46792;38.854;-9.384;2024-03-08T15:59:48;97977.44;;;12.75;100.00
60918;BME280;46792;38.854;-9.384;2024-03-08T16:01:48;97970.25;;;12.61;100.00
60918;BME280;46792;38.854;-9.384;2024-03-08T16:03:51;97960.03;;;12.50;100.00
60918;BME280;46792;38.854;-9.384;2024-03-08T16:05:52;97951.78;;;12.55;100.00
60918;BME280;46792;38.854;-9.384;2024-03-08T16:07:54;97949.72;;;12.60;100.00
60918;BME280;46792;38.854;-9.384;2024-03-08T16:09:55;97947.00;;;12.60;100.00
60918;BME280;46792;38.854;-9.384;2024-03-08T16:11:57;97936.66;;;12.54;100.00
60918;BME280;46792;38.854;-9.384;2024-03-08T16:13:58;97923.41;;;12.52;100.00
60918;BME280;46792;38.854;-9.384;2024-03-08T16:16:01;97927.72;;;12.53;100.00
60918;BME280;46792;38.854;-9.384;2024-03-08T16:18:03;97920.56;;;12.48;100.00
60918;BME280;46792;38.854;-9.384;2024-03-08T16:20:05;97896.19;;;12.48;100.00
60918;BME280;46792;38.854;-9.384;2024-03-08T16:22:11;97898.13;;;12.48;100.00
60918;BME280;46792;38.854;-9.384;2024-03-08T16:24:12;97898.13;;;12.48;100.00
60918;BME280;46792;38.854;-9.384;2024-03-08T16:26:12;97881.88;;;12.48;100.00
60918;BME280;46792;38.854;-9.384;2024-03-08T16:28:13;97892.22;;;12.46;100.00
60918;BME280;46792;38.854;-9.384;2024-03-08T16:30:14;97894.94;;;12.46;100.00
60918;BME280;46792;38.854;-9.384;2024-03-08T16:32:18;97891.75;;;12.44;100.00
60918;BME280;46792;38.854;-9.384;2024-03-08T16:34:20;97887.75;;;12.41;100.00
60918;BME280;46792;38.854;-9.384;2024-03-08T16:36:21;97877.56;;;12.38;100.00
60918;BME280;46792;38.854;-9.384;2024-03-08T16:38:22;97874.25;;;12.41;100.00
60918;BME280;46792;38.854;-9.384;2024-03-08T16:40:23;97870.56;;;12.46;100.00
60918;BME280;46792;38.854;-9.384;2024-03-08T16:42:24;97884.41;;;12.44;100.00
60918;BME280;46792;38.854;-9.384;2024-03-08T16:44:25;97874.88;;;12.47;100.00
60918;BME280;46792;38.854;-9.384;2024-03-08T16:46:27;97883.63;;;12.44;100.00
60918;BME280;46792;38.854;-9.384;2024-03-08T16:48:28;97876.13;;;12.41;100.00
60918;BME280;46792;38.854;-9.384;2024-03-08T16:50:30;97872.00;;;12.35;100.00
60918;BME280;46792;38.854;-9.384;2024-03-08T16:52:37;97858.16;;;12.36;100.00
60918;BME280;46792;38.854;-9.384;2024-03-08T16:54:37;97882.81;;;12.43;100.00
60918;BME280;46792;38.854;-9.384;2024-03-08T16:56:38;97858.63;;;12.38;100.00
60918;BME280;46792;38.854;-9.384;2024-03-08T16:58:39;97848.59;;;12.39;100.00
60918;BME280;46792;38.854;-9.384;2024-03-08T17:00:43;97855.28;;;12.41;100.00
60918;BME280;46792;38.854;-9.384;2024-03-08T17:02:50;97824.72;;;12.41;100.00
60918;BME280;46792;38.854;-9.384;2024-03-08T17:04:52;97833.66;;;12.41;100.00
60918;BME280;46792;38.854;-9.384;2024-03-08T17:06:53;97829.16;;;12.45;100.00
60918;BME280;46792;38.854;-9.384;2024-03-08T17:08:59;97822.16;;;12.44;100.00
60918;BME280;46792;38.854;-9.384;2024-03-08T17:11:00;97829.16;;;12.45;100.00
60918;BME280;46792;38.854;-9.384;2024-03-08T17:13:01;97826.63;;;12.49;100.00
60918;BME280;46792;38.854;-9.384;2024-03-08T17:15:02;97809.28;;;12.50;100.00
60918;BME280;46792;38.854;-9.384;2024-03-08T17:17:03;97795.91;;;12.54;100.00
60918;BME280;46792;38.854;-9.384;2024-03-08T17:19:05;97807.69;;;12.58;100.00
60918;BME280;46792;38.854;-9.384;2024-03-08T17:21:06;97807.69;;;12.58;100.00
60918;BME280;46792;38.854;-9.384;2024-03-08T17:23:13;97821.03;;;12.63;100.00
60918;BME280;46792;38.854;-9.384;2024-03-08T17:25:15;97831.38;;;12.70;100.00
60918;BME280;46792;38.854;-9.384;2024-03-08T17:27:20;97818.66;;;12.70;100.00
60918;BME280;46792;38.854;-9.384;2024-03-08T17:29:25;97831.06;;;12.71;100.00
60918;BME280;46792;38.854;-9.384;2024-03-08T17:31:25;97830.25;;;12.80;100.00
60918;BME280;46792;38.854;-9.384;2024-03-08T17:33:28;97820.06;;;12.85;100.00
60918;BME280;46792;38.854;-9.384;2024-03-08T17:35:36;97828.78;;;13.00;100.00
60918;BME280;46792;38.854;-9.384;2024-03-08T17:37:38;97832.44;;;13.04;100.00
60918;BME280;46792;38.854;-9.384;2024-03-08T17:39:39;97829.25;;;13.11;100.00
60918;BME280;46792;38.854;-9.384;2024-03-08T17:41:40;97839.28;;;13.19;100.00
60918;BME280;46792;38.854;-9.384;2024-03-08T17:43:42;97827.78;;;13.22;100.00
60918;BME280;46792;38.854;-9.384;2024-03-08T17:45:42;97830.94;;;13.24;100.00
60918;BME280;46792;38.854;-9.384;2024-03-08T17:47:48;97805.91;;;13.27;100.00
60918;BME280;46792;38.854;-9.384;2024-03-08T17:49:49;97818.03;;;13.30;100.00
60918;BME280;46792;38.854;-9.384;2024-03-08T17:51:50;97804.28;;;13.35;100.00
60918;BME280;46792;38.854;-9.384;2024-03-08T17:53:53;97828.22;;;13.33;100.00
60918;BME280;46792;38.854;-9.384;2024-03-08T17:55:53;97820.91;;;13.24;100.00
60918;BME280;46792;38.854;-9.384;2024-03-08T17:57:55;97818.53;;;13.23;100.00
60918;BME280;46792;38.854;-9.384;2024-03-08T17:59:55;97824.28;;;13.13;100.00
60918;BME280;46792;38.854;-9.384;2024-03-08T18:01:56;97835.78;;;13.01;100.00
60918;BME280;46792;38.854;-9.384;2024-03-08T18:03:58;97839.66;;;12.91;100.00
60918;BME280;46792;38.854;-9.384;2024-03-08T18:06:00;97835.81;;;12.92;100.00
60918;BME280;46792;38.854;-9.384;2024-03-08T18:08:05;97835.97;;;12.96;100.00
60918;BME280;46792;38.854;-9.384;2024-03-08T18:10:06;97829.13;;;12.89;100.00
60918;BME280;46792;38.854;-9.384;2024-03-08T18:12:07;97831.06;;;12.89;100.00
60918;BME280;46792;38.854;-9.384;2024-03-08T18:14:09;97824.84;;;12.80;100.00
60918;BME280;46792;38.854;-9.384;2024-03-08T18:16:13;97831.22;;;12.75;100.00
60918;BME280;46792;38.854;-9.384;2024-03-08T18:18:15;97829.34;;;12.67;100.00
60918;BME280;46792;38.854;-9.384;2024-03-08T18:20:21;97833.94;;;12.66;100.00
60918;BME280;46792;38.854;-9.384;2024-03-08T18:22:28;97834.56;;;12.54;100.00
60918;BME280;46792;38.854;-9.384;2024-03-08T18:24:28;97825.19;;;12.52;100.00
60918;BME280;46792;38.854;-9.384;2024-03-08T18:26:30;97822.97;;;12.45;100.00
60918;BME280;46792;38.854;-9.384;2024-03-08T18:28:34;97821.72;;;12.42;100.00
60918;BME280;46792;38.854;-9.384;2024-03-08T18:30:36;97827.91;;;12.43;100.00
60918;BME280;46792;38.854;-9.384;2024-03-08T18:32:37;97822.81;;;12.41;100.00
60918;BME280;46792;38.854;-9.384;2024-03-08T18:34:38;97839.06;;;12.41;100.00
60918;BME280;46792;38.854;-9.384;2024-03-08T18:36:43;97829.66;;;12.39;100.00
60918;BME280;46792;38.854;-9.384;2024-03-08T18:38:47;97828.22;;;12.41;100.00
60918;BME280;46792;38.854;-9.384;2024-03-08T18:40:49;97824.56;;;12.46;100.00
60918;BME280;46792;38.854;-9.384;2024-03-08T18:42:50;97819.16;;;12.46;100.00
60918;BME280;46792;38.854;-9.384;2024-03-08T18:44:52;97828.22;;;12.50;100.00
60918;BME280;46792;38.854;-9.384;2024-03-08T18:46:52;97834.56;;;12.54;100.00
60918;BME280;46792;38.854;-9.384;2024-03-08T18:48:57;97830.28;;;12.53;100.00
60918;BME280;46792;38.854;-9.384;2024-03-08T18:50:57;97817.06;;;12.60;100.00
60918;BME280;46792;38.854;-9.384;2024-03-08T18:52:59;97823.59;;;12.68;100.00
60918;BME280;46792;38.854;-9.384;2024-03-08T18:55:00;97832.00;;;12.75;100.00
60918;BME280;46792;38.854;-9.384;2024-03-08T18:57:01;97834.88;;;12.79;100.00
60918;BME280;46792;38.854;-9.384;2024-03-08T18:59:05;97864.34;;;12.81;100.00
60918;BME280;46792;38.854;-9.384;2024-03-08T19:01:09;97849.84;;;12.76;100.00
60918;BME280;46792;38.854;-9.384;2024-03-08T19:03:10;97848.09;;;12.72;100.00
60918;BME280;46792;38.854;-9.384;2024-03-08T19:05:11;97837.91;;;12.60;100.00
60918;BME280;46792;38.854;-9.384;2024-03-08T19:07:16;97836.34;;;12.59;100.00
60918;BME280;46792;38.854;-9.384;2024-03-08T19:09:20;97837.47;;;12.49;100.00
60918;BME280;46792;38.854;-9.384;2024-03-08T19:11:21;97845.72;;;12.53;100.00
60918;BME280;46792;38.854;-9.384;2024-03-08T19:13:23;97837.28;;;12.45;100.00
60918;BME280;46792;38.854;-9.384;2024-03-08T19:15:25;97828.69;;;12.52;100.00
60918;BME280;46792;38.854;-9.384;2024-03-08T19:17:25;97826.16;;;12.56;100.00
60918;BME280;46792;38.854;-9.384;2024-03-08T19:19:26;97834.09;;;12.61;100.00
60918;BME280;46792;38.854;-9.384;2024-03-08T19:21:27;97822.50;;;12.52;100.00
60918;BME280;46792;38.854;-9.384;2024-03-08T19:23:28;97819.94;;;12.46;100.00
60918;BME280;46792;38.854;-9.384;2024-03-08T19:25:32;97819.00;;;12.42;100.00
60918;BME280;46792;38.854;-9.384;2024-03-08T19:27:33;97818.19;;;12.42;100.00
60918;BME280;46792;38.854;-9.384;2024-03-08T19:29:36;97820.25;;;12.54;100.00
60918;BME280;46792;38.854;-9.384;2024-03-08T19:31:37;97819.31;;;12.50;100.00
60918;BME280;46792;38.854;-9.384;2024-03-08T19:33:38;97816.44;;;12.55;100.00
60918;BME280;46792;38.854;-9.384;2024-03-08T19:35:40;97808.63;;;12.44;100.00
60918;BME280;46792;38.854;-9.384;2024-03-08T19:37:41;97816.59;;;12.50;100.00
60918;BME280;46792;38.854;-9.384;2024-03-08T19:39:47;97810.84;;;12.60;100.00
60918;BME280;46792;38.854;-9.384;2024-03-08T19:41:48;97813.41;;;12.56;100.00
60918;BME280;46792;38.854;-9.384;2024-03-08T19:43:49;97804.66;;;12.51;100.00
60918;BME280;46792;38.854;-9.384;2024-03-08T19:45:50;97811.34;;;12.44;100.00
60918;BME280;46792;38.854;-9.384;2024-03-08T19:47:53;97819.44;;;12.53;100.00
60918;BME280;46792;38.854;-9.384;2024-03-08T19:49:55;97808.81;;;12.57;100.00
60918;BME280;46792;38.854;-9.384;2024-03-08T19:51:56;97808.31;;;12.55;100.00
60918;BME280;46792;38.854;-9.384;2024-03-08T19:53:57;97811.50;;;12.57;100.00
60918;BME280;46792;38.854;-9.384;2024-03-08T19:55:57;97802.56;;;12.56;100.00
60918;BME280;46792;38.854;-9.384;2024-03-08T19:57:59;97799.88;;;12.56;100.00
60918;BME280;46792;38.854;-9.384;2024-03-08T20:00:00;97807.03;;;12.52;100.00
60918;BME280;46792;38.854;-9.384;2024-03-08T20:02:01;97812.63;;;12.65;100.00
60918;BME280;46792;38.854;-9.384;2024-03-08T20:04:01;97818.50;;;12.67;100.00
60918;BME280;46792;38.854;-9.384;2024-03-08T20:06:03;97812.00;;;12.59;100.00
60918;BME280;46792;38.854;-9.384;2024-03-08T20:08:06;97816.94;;;12.48;100.00
60918;BME280;46792;38.854;-9.384;2024-03-08T20:10:15;97813.41;;;12.47;100.00
60918;BME280;46792;38.854;-9.384;2024-03-08T20:12:16;97813.41;;;12.47;100.00
60918;BME280;46792;38.854;-9.384;2024-03-08T20:14:17;97815.47;;;12.51;100.00
60918;BME280;46792;38.854;-9.384;2024-03-08T20:16:17;97814.50;;;12.55;100.00
60918;BME280;46792;38.854;-9.384;2024-03-08T20:18:18;97819.44;;;12.44;100.00
60918;BME280;46792;38.854;-9.384;2024-03-08T20:20:23;97815.00;;;12.57;100.00
60918;BME280;46792;38.854;-9.384;2024-03-08T20:22:23;97812.00;;;12.59;100.00
60918;BME280;46792;38.854;-9.384;2024-03-08T20:24:24;97825.81;;;12.57;100.00
60918;BME280;46792;38.854;-9.384;2024-03-08T20:26:25;97819.78;;;12.60;100.00
60918;BME280;46792;38.854;-9.384;2024-03-08T20:28:26;97823.75;;;12.63;100.00
60918;BME280;46792;38.854;-9.384;2024-03-08T20:30:28;97827.91;;;12.60;100.00
60918;BME280;46792;38.854;-9.384;2024-03-08T20:32:30;97830.94;;;12.59;100.00
60918;BME280;46792;38.854;-9.384;2024-03-08T20:34:30;97828.38;;;12.54;100.00
60918;BME280;46792;38.854;-9.384;2024-03-08T20:36:34;97831.38;;;12.43;100.00
60918;BME280;46792;38.854;-9.384;2024-03-08T20:38:35;97847.63;;;12.43;100.00
60918;BME280;46792;38.854;-9.384;2024-03-08T20:40:36;97841.09;;;12.44;100.00
60918;BME280;46792;38.854;-9.384;2024-03-08T20:42:42;97847.97;;;12.51;100.00
60918;BME280;46792;38.854;-9.384;2024-03-08T20:44:47;97836.97;;;12.38;100.00
60918;BME280;46792;38.854;-9.384;2024-03-08T20:46:48;97828.53;;;12.31;100.00
60918;BME280;46792;38.854;-9.384;2024-03-08T20:48:49;97835.88;;;12.30;100.00
60918;BME280;46792;38.854;-9.384;2024-03-08T20:50:50;97829.47;;;12.17;100.00
60918;BME280;46792;38.854;-9.384;2024-03-08T20:52:51;97830.72;;;12.11;100.00
60918;BME280;46792;38.854;-9.384;2024-03-08T20:54:53;97830.41;;;12.04;100.00
60918;BME280;46792;38.854;-9.384;2024-03-08T20:56:54;97828.03;;;12.02;100.00
60918;BME280;46792;38.854;-9.384;2024-03-08T20:58:54;97828.44;;;11.96;100.00
60918;BME280;46792;38.854;-9.384;2024-03-08T21:00:55;97830.25;;;12.00;100.00
60918;BME280;46792;38.854;-9.384;2024-03-08T21:02:56;97839.59;;;11.94;100.00
60918;BME280;46792;38.854;-9.384;2024-03-08T21:04:57;97845.31;;;11.93;100.00
60918;BME280;46792;38.854;-9.384;2024-03-08T21:06:58;97849.75;;;11.89;100.00
60918;BME280;46792;38.854;-9.384;2024-03-08T21:08:59;97848.81;;;11.93;100.00
60918;BME280;46792;38.854;-9.384;2024-03-08T21:11:00;97846.72;;;11.90;100.00
60918;BME280;46792;38.854;-9.384;2024-03-08T21:13:01;97845.94;;;11.90;100.00
60918;BME280;46792;38.854;-9.384;2024-03-08T21:15:01;97860.09;;;11.86;100.00
60918;BME280;46792;38.854;-9.384;2024-03-08T21:17:04;97863.25;;;11.80;100.00
60918;BME280;46792;38.854;-9.384;2024-03-08T21:19:06;97859.47;;;11.90;100.00
60918;BME280;46792;38.854;-9.384;2024-03-08T21:21:06;97869.78;;;11.79;100.00
60918;BME280;46792;38.854;-9.384;2024-03-08T21:23:08;97862.59;;;11.74;100.00
60918;BME280;46792;38.854;-9.384;2024-03-08T21:25:11;97868.50;;;11.76;100.00
60918;BME280;46792;38.854;-9.384;2024-03-08T21:27:12;97856.25;;;11.79;100.00
60918;BME280;46792;38.854;-9.384;2024-03-08T21:29:12;97861.31;;;11.71;100.00